Time;durP1;ratioP1;P1;durP2;ratioP2;P2;SDS_P1;SDS_P2;PMS_P1;PMS_P2;Temp;Humidity;BMP_temperature;BMP_pressure;BME280_temperature;BME280_humidity;BME280_pressure;Samples;Min_cycle;Max_cycle;Signal;HPM_P1;HPM_P2
2022/08/15 00:00:33;;;;;;;11.70;7.40;;;;;;;19.56;74.68;96121.19;6161929;22;20163;-74
2022/08/15 00:03:02;;;;;;;8.47;7.00;;;;;;;20.21;74.55;96220.00;6135810;22;20163;-78
2022/08/15 00:05:38;;;;;;;8.30;6.70;;;;;;;20.36;74.29;96257.13;6162170;22;20166;-73
2022/08/15 00:08:08;;;;;;;8.07;6.93;;;;;;;20.14;73.92;96197.84;6136317;22;20179;-76
2022/08/15 00:11:00;;;;;;;9.77;6.53;;;;;;;20.11;73.64;96220.00;6139983;22;20165;-74
2022/08/15 00:13:53;;;;;;;8.77;6.73;;;;;;;20.11;73.81;96224.47;6140658;22;20375;-74
2022/08/15 00:16:32;;;;;;;7.13;6.43;;;;;;;19.78;73.29;96175.13;6136869;22;20244;-74
2022/08/15 00:19:23;;;;;;;7.70;6.10;;;;;;;19.97;73.89;96219.72;6136602;22;20174;-74
2022/08/15 00:21:55;;;;;;;7.83;6.40;;;;;;;19.28;73.86;96109.84;6160142;22;20195;-75
2022/08/15 00:24:25;;;;;;;9.97;6.33;;;;;;;19.37;73.97;96139.69;6135881;22;20236;-73
2022/08/15 00:26:58;;;;;;;8.13;7.03;;;;;;;19.55;74.42;96176.50;6136710;22;20188;-74
2022/08/15 00:29:29;;;;;;;10.60;7.10;;;;;;;19.26;74.26;96130.16;6135986;22;20234;-74
2022/08/15 00:32:16;;;;;;;8.23;6.77;;;;;;;19.86;74.31;96209.38;6138556;22;20566;-76
2022/08/15 00:35:35;;;;;;;15.17;7.97;;;;;;;19.93;73.64;96208.63;6142228;22;20166;-75
2022/08/15 00:37:56;;;;;;;8.30;6.87;;;;;;;19.99;74.57;96241.41;6162423;22;20166;-75
2022/08/15 00:43:35;;;;;;;10.17;8.00;;;;;;;19.87;74.79;96209.22;6159758;22;20163;-75
2022/08/15 00:46:05;;;;;;;11.87;7.47;;;;;;;19.94;74.76;96233.97;6162640;22;20615;-74
2022/08/15 00:48:50;;;;;;;10.03;7.23;;;;;;;19.91;74.75;96215.00;6138850;22;20187;-74
2022/08/15 00:51:42;;;;;;;9.00;7.20;;;;;;;19.44;74.90;96217.75;6160479;22;20519;-74
2022/08/15 00:54:30;;;;;;;8.97;6.83;;;;;;;19.87;75.54;96274.94;6137429;22;20369;-74
2022/08/15 00:57:22;;;;;;;9.80;6.60;;;;;;;19.66;75.62;96218.34;6139292;22;20169;-74
2022/08/15 01:00:23;;;;;;;9.67;7.80;;;;;;;19.12;75.06;96129.81;6140950;22;20163;-74
2022/08/15 01:03:08;;;;;;;11.03;7.37;;;;;;;18.74;76.35;96120.28;6139211;22;20163;-77
2022/08/15 01:05:43;;;;;;;9.40;8.00;;;;;;;18.62;76.29;96129.28;6137582;22;20591;-78
2022/08/15 01:08:16;;;;;;;11.43;7.83;;;;;;;18.69;77.44;96206.44;6161483;22;20162;-75
2022/08/15 01:10:47;;;;;;;9.57;7.63;;;;;;;18.49;78.59;96210.84;6160409;22;20245;-75
2022/08/15 01:13:31;;;;;;;11.40;8.40;;;;;;;18.98;79.23;96272.81;6139331;22;20515;-74
2022/08/15 01:16:20;;;;;;;10.83;7.77;;;;;;;17.91;79.08;96098.28;6139552;22;20205;-76
2022/08/15 01:19:13;;;;;;;8.63;7.17;;;;;;;18.21;78.89;96158.41;6138277;22;20456;-74
2022/08/15 01:21:55;;;;;;;13.27;7.83;;;;;;;18.01;79.28;96135.78;6135950;22;20174;-74
2022/08/15 01:24:52;;;;;;;12.03;8.27;;;;;;;18.79;79.96;96269.38;6161925;22;20190;-74
2022/08/15 01:28:04;;;;;;;10.00;8.10;;;;;;;17.81;80.91;96121.84;6140230;22;20161;-76
2022/08/15 01:30:45;;;;;;;10.23;7.93;;;;;;;18.78;80.14;96271.16;6136194;22;20468;-74
2022/08/15 01:33:38;;;;;;;10.87;8.23;;;;;;;18.39;79.15;96154.13;6139063;22;20192;-74
2022/08/15 01:36:08;;;;;;;10.63;7.67;;;;;;;18.93;78.36;96209.44;6160653;22;20236;-76
2022/08/15 01:39:14;;;;;;;9.80;7.77;;;;;;;19.56;77.46;96280.59;6163920;22;20427;-75
2022/08/15 01:42:02;;;;;;;10.40;7.87;;;;;;;19.55;77.08;96281.56;6160250;22;20162;-74
2022/08/15 01:44:42;;;;;;;7.97;6.80;;;;;;;19.31;76.17;96226.84;6162630;22;20185;-76
2022/08/15 01:47:47;;;;;;;8.17;6.63;;;;;;;19.02;76.04;96171.81;6140090;22;20448;-74
2022/08/15 01:50:30;;;;;;;9.23;7.53;;;;;;;19.42;75.87;96239.84;6160562;22;20162;-75
2022/08/15 01:53:15;;;;;;;10.10;7.60;;;;;;;19.21;75.47;96190.16;6136310;22;20193;-75
2022/08/15 01:56:07;;;;;;;9.77;7.37;;;;;;;19.80;75.70;96273.03;6161358;22;20247;-74
2022/08/15 01:58:55;;;;;;;10.53;7.67;;;;;;;19.55;75.39;96237.75;6140618;22;20162;-76
2022/08/15 02:01:50;;;;;;;8.80;7.70;;;;;;;19.76;75.09;96271.69;6160981;22;20436;-76
2022/08/15 02:04:28;;;;;;;11.53;8.00;;;;;;;18.88;76.68;96222.13;6160326;22;20513;-74
2022/08/15 02:06:59;;;;;;;13.37;8.87;;;;;;;18.68;78.98;96279.06;6159925;22;20167;-76
2022/08/15 02:09:30;;;;;;;10.93;8.93;;;;;;;17.76;80.45;96192.94;6136462;22;20360;-77
2022/08/15 02:12:27;;;;;;;11.73;9.43;;;;;;;17.45;81.77;96140.75;6165133;22;20193;-74
2022/08/15 02:15:20;;;;;;;12.90;9.00;;;;;;;17.63;82.49;96178.47;6139665;22;20162;-76
2022/08/15 02:17:52;;;;;;;14.93;8.00;;;;;;;17.99;82.12;96216.31;6161836;22;20204;-78
2022/08/15 02:20:23;;;;;;;11.47;8.73;;;;;;;18.01;81.61;96214.38;6160460;22;20161;-75
2022/08/15 02:22:55;;;;;;;13.50;8.17;;;;;;;17.91;81.79;96184.72;6160734;22;20172;-78
2022/08/15 02:25:24;;;;;;;13.03;8.23;;;;;;;18.12;81.47;96204.59;6135520;22;20162;-76
2022/08/15 02:27:54;;;;;;;13.20;9.80;;;;;;;17.85;81.15;96173.81;6135131;22;20446;-75
2022/08/15 02:30:28;;;;;;;11.73;9.60;;;;;;;17.91;82.51;96208.31;6136087;22;20464;-74
2022/08/15 02:33:04;;;;;;;13.70;9.77;;;;;;;17.57;83.01;96186.84;6136298;22;20196;-76
2022/08/15 02:35:38;;;;;;;13.50;9.53;;;;;;;17.73;83.69;96216.81;6159592;22;20226;-78
2022/08/15 02:38:09;;;;;;;12.67;9.43;;;;;;;17.48;83.04;96180.59;6160594;22;20160;-74
2022/08/15 02:40:46;;;;;;;13.47;10.47;;;;;;;17.80;83.29;96225.78;6162008;22;20233;-74
2022/08/15 02:43:20;;;;;;;12.40;10.17;;;;;;;18.05;82.74;96258.53;6136744;22;20165;-76
2022/08/15 02:45:49;;;;;;;14.13;9.80;;;;;;;17.32;83.40;96133.16;6138548;22;20168;-77
2022/08/15 02:48:43;;;;;;;13.37;9.43;;;;;;;17.97;82.99;96245.25;6139884;22;20207;-74
2022/08/15 02:51:32;;;;;;;12.83;10.50;;;;;;;17.99;82.69;96232.03;6139657;22;20488;-78
2022/08/15 02:54:26;;;;;;;13.27;10.47;;;;;;;18.36;82.22;96301.22;6163710;22;20253;-75
2022/08/15 02:57:06;;;;;;;15.27;10.33;;;;;;;17.54;82.41;96160.91;6138041;22;20164;-74
2022/08/15 02:59:40;;;;;;;13.83;10.40;;;;;;;17.85;82.46;96220.13;6136793;22;20165;-74
2022/08/15 03:02:14;;;;;;;13.47;10.13;;;;;;;18.05;82.29;96234.13;6138271;22;20524;-75
2022/08/15 03:05:00;;;;;;;13.90;10.37;;;;;;;18.14;81.68;96220.19;6139562;22;20160;-78
2022/08/15 03:07:31;;;;;;;13.60;10.10;;;;;;;18.30;80.24;96200.34;6186095;22;20180;-76
2022/08/15 03:10:03;;;;;;;10.93;9.13;;;;;;;18.28;79.40;96218.00;6161078;22;20168;-75
2022/08/15 03:12:59;;;;;;;10.33;8.83;;;;;;;18.79;79.06;96296.47;6137573;22;20502;-75
2022/08/15 03:15:32;;;;;;;11.80;9.23;;;;;;;18.08;78.07;96168.31;6136417;22;20161;-74
2022/08/15 03:18:01;;;;;;;13.90;8.80;;;;;;;18.51;78.27;96229.91;6136354;22;20200;-77
2022/08/15 03:20:30;;;;;;;11.77;8.00;;;;;;;18.25;77.14;96165.84;6136433;22;20464;-78
2022/08/15 03:23:01;;;;;;;10.70;8.63;;;;;;;19.00;77.45;96315.47;6136826;22;20456;-76
2022/08/15 03:25:39;;;;;;;9.63;8.17;;;;;;;18.97;77.54;96314.94;6160135;22;20166;-78
2022/08/15 03:28:23;;;;;;;10.20;8.53;;;;;;;18.00;77.66;96163.78;6164774;22;20322;-75
2022/08/15 03:31:10;;;;;;;10.83;8.27;;;;;;;18.51;77.84;96226.44;6166666;22;20169;-77
2022/08/15 03:33:39;;;;;;;12.73;9.10;;;;;;;18.43;77.97;96245.50;6169487;22;20185;-77
2022/08/15 03:36:25;;;;;;;11.43;8.33;;;;;;;18.48;78.60;96268.69;6168322;22;20164;-74
2022/08/15 03:38:54;;;;;;;15.63;9.27;;;;;;;18.42;78.09;96216.78;6190496;22;20165;-75
2022/08/15 03:41:28;;;;;;;13.17;9.17;;;;;;;18.20;77.69;96182.94;6195525;22;20158;-81
2022/08/15 03:43:56;;;;;;;12.33;9.57;;;;;;;18.81;78.01;96302.38;6170166;22;20170;-78
2022/08/15 03:46:28;;;;;;;11.33;9.50;;;;;;;18.19;78.45;96226.69;6193139;22;20220;-76
2022/08/15 03:48:57;;;;;;;13.77;10.20;;;;;;;17.89;78.18;96153.41;6190325;22;20168;-75
2022/08/15 03:51:38;;;;;;;12.47;9.57;;;;;;;18.43;79.44;96268.22;6191653;22;20239;-77
2022/08/15 03:54:25;;;;;;;13.53;10.00;;;;;;;17.95;79.57;96205.25;6186632;22;20246;-77
2022/08/15 03:56:58;;;;;;;14.73;9.60;;;;;;;17.62;79.63;96156.66;6167707;22;20168;-78
2022/08/15 03:59:29;;;;;;;14.90;10.37;;;;;;;18.34;79.60;96269.06;6190554;22;20162;-78
2022/08/15 04:02:13;;;;;;;15.10;9.93;;;;;;;18.28;79.09;96227.66;6190147;22;20153;-76
2022/08/15 04:04:57;;;;;;;12.17;9.60;;;;;;;18.27;78.57;96218.13;6166101;22;20160;-77
2022/08/15 04:07:29;;;;;;;12.57;10.07;;;;;;;18.50;78.34;96253.66;6164858;22;20475;-76
2022/08/15 04:10:13;;;;;;;12.77;9.43;;;;;;;18.59;77.84;96247.56;6160773;22;20172;-77
2022/08/15 04:13:04;;;;;;;13.33;8.70;;;;;;;18.74;77.14;96224.38;6185025;22;20185;-78
2022/08/15 04:15:36;;;;;;;11.63;8.83;;;;;;;18.88;75.82;96192.44;6187622;22;20229;-76
2022/08/15 04:18:09;;;;;;;14.07;8.80;;;;;;;19.56;75.70;96312.13;6183660;22;20190;-77
2022/08/15 04:21:00;;;;;;;12.50;8.83;;;;;;;18.45;76.37;96172.78;6186830;22;20151;-76
2022/08/15 04:23:34;;;;;;;13.97;8.57;;;;;;;18.85;75.72;96243.44;6167284;22;20263;-78
2022/08/15 04:26:02;;;;;;;11.47;8.10;;;;;;;18.46;75.45;96142.16;6192811;22;20151;-78
2022/08/15 04:28:35;;;;;;;11.57;8.57;;;;;;;18.59;75.37;96147.91;6192513;22;20167;-74
2022/08/15 04:31:26;;;;;;;11.30;8.53;;;;;;;18.60;75.33;96154.81;6194780;22;20234;-76
2022/08/15 04:34:03;;;;;;;11.17;8.83;;;;;;;18.62;74.99;96121.41;6188105;22;20185;-73
2022/08/15 04:36:50;;;;;;;12.57;8.63;;;;;;;19.73;73.27;96246.50;6162326;22;20888;-76
2022/08/15 04:39:21;;;;;;;9.27;8.20;;;;;;;20.06;73.21;96287.97;6164739;22;20242;-75
2022/08/15 04:42:09;;;;;;;12.57;8.73;;;;;;;19.82;71.74;96155.47;6189081;22;20155;-76
2022/08/15 04:45:00;;;;;;;12.23;8.53;;;;;;;20.09;70.42;96164.13;6145512;22;20189;-77
2022/08/15 04:47:32;;;;;;;11.87;7.93;;;;;;;20.38;69.80;96208.63;6188518;22;20216;-78
2022/08/15 04:50:05;;;;;;;9.73;7.93;;;;;;;20.59;68.23;96189.91;6187043;22;20212;-76
2022/08/15 04:52:43;;;;;;;13.50;9.00;;;;;;;21.02;68.84;96214.47;6160896;22;20453;-75
2022/08/15 04:55:13;;;;;;;10.70;8.90;;;;;;;21.70;66.94;96275.97;6190435;22;20171;-77
2022/08/15 04:57:50;;;;;;;15.77;9.90;;;;;;;21.18;66.24;96171.63;6187965;22;20590;-78
2022/08/15 05:00:27;;;;;;;11.37;8.57;;;;;;;21.00;66.82;96166.38;6188372;22;20210;-77
2022/08/15 05:03:19;;;;;;;12.73;8.63;;;;;;;20.68;67.81;96160.06;6190180;22;20173;-78
2022/08/15 05:06:00;;;;;;;15.03;9.40;;;;;;;21.51;68.32;96301.72;6140184;22;20444;-76
2022/08/15 05:08:31;;;;;;;11.83;8.70;;;;;;;20.59;69.12;96185.47;6185968;22;20153;-78
2022/08/15 05:11:08;;;;;;;12.67;9.07;;;;;;;21.10;68.13;96231.31;6183791;22;20152;-76
2022/08/15 05:13:44;;;;;;;11.67;8.43;;;;;;;20.64;68.46;96150.81;6185755;22;20195;-73
2022/08/15 05:16:20;;;;;;;11.53;9.70;;;;;;;21.55;68.58;96281.97;6184095;22;20192;-73
2022/08/15 05:19:02;;;;;;;12.30;8.97;;;;;;;21.81;66.83;96286.28;6185366;22;20219;-75
2022/08/15 05:21:32;;;;;;;10.97;9.50;;;;;;;21.29;66.87;96166.06;6186073;22;20466;-76
2022/08/15 05:24:10;;;;;;;15.00;8.80;;;;;;;22.06;66.22;96313.59;6161226;22;20164;-75
2022/08/15 05:26:39;;;;;;;12.73;8.63;;;;;;;21.17;65.77;96169.97;6138696;22;20187;-74
2022/08/15 05:29:26;;;;;;;14.77;9.20;;;;;;;21.61;65.85;96229.47;6138142;22;20172;-74
2022/08/15 05:31:54;;;;;;;12.33;9.17;;;;;;;22.16;65.21;96295.81;6189151;22;20160;-75
2022/08/15 05:34:22;;;;;;;14.47;7.60;;;;;;;22.12;64.78;96317.38;6162731;22;20192;-76
2022/08/15 05:37:14;;;;;;;9.63;7.80;;;;;;;22.00;65.11;96282.56;6144530;22;20160;-76
2022/08/15 05:39:48;;;;;;;9.10;7.60;;;;;;;21.59;64.57;96194.56;6162218;22;20171;-75
2022/08/15 05:42:27;;;;;;;8.97;7.40;;;;;;;21.62;64.62;96225.84;6120007;22;20214;-75
2022/08/15 05:45:12;;;;;;;10.70;8.53;;;;;;;21.78;64.05;96167.91;6191217;22;20159;-78
2022/08/15 05:48:14;;;;;;;10.57;8.50;;;;;;;22.55;63.58;96216.91;6187289;22;20167;-74
2022/08/15 05:51:28;;;;;;;14.37;8.90;;;;;;;22.98;60.98;96213.19;6185297;22;20201;-74
2022/08/15 05:54:12;;;;;;;8.63;7.50;;;;;;;23.26;61.52;96317.50;6159952;22;20215;-75
2022/08/15 05:57:09;;;;;;;9.87;7.37;;;;;;;23.41;61.04;96286.81;6163106;22;20224;-75
2022/08/15 05:59:43;;;;;;;8.57;7.07;;;;;;;23.44;59.81;96318.19;6164517;22;20171;-75
2022/08/15 06:02:26;;;;;;;10.03;7.20;;;;;;;22.72;60.68;96228.34;6164287;22;20201;-75
2022/08/15 06:05:13;;;;;;;9.63;7.03;;;;;;;23.28;61.49;96257.38;6170246;22;20457;-75
2022/08/15 06:07:44;;;;;;;13.60;7.23;;;;;;;23.36;59.25;96254.75;6165639;22;20188;-75
2022/08/15 06:10:33;;;;;;;7.57;6.43;;;;;;;22.69;59.71;96175.91;6146597;22;20171;-76
2022/08/15 06:13:15;;;;;;;7.97;6.13;;;;;;;23.60;60.29;96306.75;6146723;22;20186;-78
2022/08/15 06:16:18;;;;;;;8.60;7.00;;;;;;;22.91;59.95;96230.66;6172318;22;20159;-79
2022/08/15 06:19:21;;;;;;;10.27;7.00;;;;;;;22.67;60.57;96203.25;6173063;22;20256;-78
2022/08/15 06:21:52;;;;;;;10.50;7.53;;;;;;;23.44;60.70;96329.59;6191016;22;20253;-77
2022/08/15 06:24:29;;;;;;;7.90;6.63;;;;;;;23.44;60.05;96332.22;6165345;22;20170;-75
2022/08/15 06:27:17;;;;;;;10.30;7.10;;;;;;;22.93;60.43;96255.09;6189883;22;20163;-76
2022/08/15 06:29:58;;;;;;;8.10;6.73;;;;;;;23.50;60.33;96332.53;6220254;22;20182;-79
2022/08/15 06:32:40;;;;;;;8.43;6.83;;;;;;;22.78;60.02;96193.38;6172149;22;20158;-79
2022/08/15 06:35:19;;;;;;;11.17;7.13;;;;;;;22.88;60.48;96252.94;6195636;22;20229;-76
2022/08/15 06:38:20;;;;;;;9.30;7.13;;;;;;;22.92;60.26;96221.75;6197433;22;20166;-77
2022/08/15 06:41:58;;;;;;;10.00;7.77;;;;;;;23.54;59.46;96238.69;6192756;22;20436;-77
2022/08/15 06:44:42;;;;;;;11.97;8.60;;;;;;;24.29;59.51;96346.63;6150867;22;20168;-77
2022/08/15 06:47:13;;;;;;;14.17;10.90;;;;;;;23.98;59.90;96287.50;6148337;22;20227;-75
2022/08/15 06:49:57;;;;;;;13.97;8.97;;;;;;;24.18;59.44;96317.88;6172176;22;20218;-75
2022/08/15 06:52:31;;;;;;;11.67;8.50;;;;;;;24.05;59.03;96293.78;6195277;22;20152;-78
2022/08/15 06:55:02;;;;;;;12.47;7.97;;;;;;;24.17;58.48;96311.75;6190725;22;20196;-76
2022/08/15 06:57:57;;;;;;;13.67;8.73;;;;;;;23.71;59.21;96225.28;6191511;22;20182;-81
2022/08/15 07:01:33;;;;;;;11.37;8.43;;;;;;;23.74;58.67;96210.88;6186589;22;20476;-78
2022/08/15 07:04:52;;;;;;;11.83;7.90;;;;;;;24.54;59.53;96344.69;6188113;22;20159;-79
2022/08/15 07:07:20;;;;;;;9.87;7.47;;;;;;;24.54;58.19;96352.63;6190545;22;20157;-78
2022/08/15 07:10:13;;;;;;;8.27;7.47;;;;;;;24.69;57.79;96343.75;6163633;22;20164;-79
2022/08/15 07:13:01;;;;;;;13.97;8.63;;;;;;;24.64;57.90;96348.78;6138755;22;20536;-79
2022/08/15 07:15:48;;;;;;;14.10;8.63;;;;;;;24.44;58.70;96362.63;6141951;22;20243;-75
2022/08/15 07:18:56;;;;;;;18.13;12.90;;;;;;;24.48;57.50;96370.03;6138793;22;20419;-75
2022/08/15 07:21:44;;;;;;;10.97;8.70;;;;;;;23.23;59.08;96196.28;6166688;22;20218;-79
2022/08/15 07:24:30;;;;;;;15.00;9.43;;;;;;;23.74;58.99;96256.66;6140682;22;20236;-77
2022/08/15 07:27:14;;;;;;;8.83;7.33;;;;;;;23.82;58.43;96259.25;6142172;22;20166;-79
2022/08/15 07:29:47;;;;;;;13.13;10.57;;;;;;;23.85;57.99;96271.31;6139488;22;20166;-77
2022/08/15 07:32:43;;;;;;;15.63;11.53;;;;;;;24.06;58.23;96330.66;6141464;22;20349;-77
2022/08/15 07:35:13;;;;;;;11.27;7.63;;;;;;;24.07;57.98;96358.75;6165300;22;20196;-79
2022/08/15 07:37:46;;;;;;;12.57;8.40;;;;;;;24.14;58.73;96367.66;6164438;22;20165;-79
2022/08/15 07:40:14;;;;;;;14.70;10.80;;;;;;;24.38;58.31;96365.94;6165623;22;20229;-77
2022/08/15 07:42:49;;;;;;;10.30;7.97;;;;;;;24.17;58.42;96354.09;6188804;22;20213;-77
2022/08/15 07:45:31;;;;;;;10.00;6.80;;;;;;;24.18;57.50;96366.34;6143563;22;20183;-80
2022/08/15 07:48:29;;;;;;;11.50;7.83;;;;;;;24.53;57.51;96372.97;6269503;22;20163;-75
2022/08/15 07:51:15;;;;;;;17.83;12.37;;;;;;;24.81;56.56;96373.38;6143627;22;20181;-75
2022/08/15 07:54:03;;;;;;;12.30;7.77;;;;;;;24.63;56.26;96327.75;6168063;22;20189;-78
2022/08/15 07:56:52;;;;;;;11.97;7.93;;;;;;;24.91;56.23;96355.44;6165986;22;20172;-80
2022/08/15 07:59:26;;;;;;;14.10;8.20;;;;;;;25.18;55.93;96317.00;6137955;22;20177;-78
2022/08/15 08:03:09;;;;;;;11.63;7.90;;;;;;;25.20;54.30;96283.19;6188972;22;20169;-80
2022/08/15 08:06:25;;;;;;;7.93;6.97;;;;;;;25.34;53.59;96280.56;6231588;22;20233;-78
2022/08/15 08:09:33;;;;;;;10.23;8.40;;;;;;;26.21;52.86;96385.22;6170016;22;20244;-78
2022/08/15 08:12:16;;;;;;;12.57;7.47;;;;;;;25.79;54.18;96370.69;6140279;22;20167;-77
2022/08/15 08:15:10;;;;;;;9.93;7.30;;;;;;;25.57;53.98;96368.06;6141746;22;20197;-80
2022/08/15 08:17:41;;;;;;;11.77;7.63;;;;;;;25.57;53.83;96376.88;6138988;22;20271;-76
2022/08/15 08:20:45;;;;;;;9.27;6.50;;;;;;;25.66;53.20;96382.91;6142250;22;20162;-76
2022/08/15 08:23:23;;;;;;;6.17;5.57;;;;;;;25.14;52.76;96321.00;6135631;22;20444;-74
2022/08/15 08:26:22;;;;;;;6.13;5.53;;;;;;;24.98;53.62;96340.47;6137405;22;20169;-75
2022/08/15 08:28:56;;;;;;;6.43;5.50;;;;;;;24.77;54.39;96362.28;6161426;22;20231;-77
2022/08/15 08:31:30;;;;;;;7.17;5.67;;;;;;;24.46;55.04;96373.84;6139425;22;20373;-75
2022/08/15 08:34:18;;;;;;;6.97;5.50;;;;;;;24.47;55.62;96370.19;6161065;22;20224;-76
2022/08/15 08:37:21;;;;;;;6.70;5.83;;;;;;;24.80;54.67;96364.59;6191391;22;20469;-77
